createdAt,value
2022-10-03T05:31:49.815Z,11.50
2022-10-03T05:35:24.073Z,13.02
2022-10-03T05:39:01.517Z,13.40
2022-10-03T05:42:22.760Z,12.65
2022-10-03T05:45:43.368Z,15.18
2022-10-03T05:48:56.223Z,14.75
2022-10-03T05:52:18.997Z,16.33
2022-10-03T05:56:00.651Z,15.75
2022-10-03T05:59:34.796Z,16.40
2022-10-03T06:03:02.159Z,16.13
2022-10-03T06:06:24.647Z,16.05
2022-10-03T06:10:04.624Z,17.08
2022-10-03T06:50:37.155Z,20.88
2022-10-03T06:53:54.241Z,20.27
2022-10-03T06:57:24.132Z,21.20
2022-10-03T07:00:54.980Z,21.55
2022-10-03T07:04:25.797Z,23.40
2022-10-03T07:08:02.269Z,18.95
2022-10-03T07:11:11.086Z,23.48
2022-10-03T07:14:38.967Z,22.38
2022-10-03T07:17:58.500Z,21.60
2022-10-03T07:21:17.840Z,21.38
2022-10-03T07:24:59.369Z,20.88
2022-10-03T07:28:32.938Z,23.17
2022-10-03T07:32:14.526Z,22.98
2022-10-03T07:35:26.726Z,22.90
2022-10-03T07:39:01.457Z,22.33
2022-10-03T07:42:46.922Z,21.80
2022-10-03T07:46:16.031Z,22.42
2022-10-03T07:49:57.645Z,23.52
2022-10-03T07:53:39.482Z,24.25
2022-10-03T07:57:16.257Z,21.77
2022-10-03T08:00:23.077Z,21.70
2022-10-03T08:04:01.200Z,20.42
2022-10-03T08:07:41.283Z,19.67
2022-10-03T08:11:17.389Z,19.30
2022-10-03T08:14:43.812Z,18.88
2022-10-03T08:18:17.333Z,17.83
2022-10-03T08:21:38.711Z,18.95
2022-10-03T08:25:14.920Z,20.38
2022-10-03T08:28:42.817Z,21.20
2022-10-03T08:32:14.439Z,19.27
2022-10-03T08:35:29.083Z,19.58
2022-10-03T08:38:57.204Z,17.83
2022-10-03T08:42:27.304Z,16.15
2022-10-03T08:45:54.507Z,14.23
2022-10-03T08:49:04.473Z,12.85
2022-10-03T08:52:47.600Z,14.07
2022-10-03T08:56:15.165Z,13.13
2022-10-03T08:59:55.105Z,12.20
2022-10-03T09:03:35.255Z,13.02
2022-10-03T09:07:17.423Z,13.30
2022-10-03T09:11:00.072Z,12.93
2022-10-03T09:14:41.884Z,10.30
2022-10-03T09:18:11.072Z,10.15
2022-10-03T09:21:44.187Z,10.07
2022-10-03T09:25:23.044Z,9.90
2022-10-03T09:28:49.970Z,8.73
2022-10-03T09:32:18.541Z,8.60
2022-10-03T09:35:53.549Z,6.53
2022-10-03T09:39:24.253Z,6.68
2022-10-03T09:42:54.414Z,6.75
2022-10-03T09:46:36.036Z,6.20
2022-10-03T09:50:19.403Z,6.15
2022-10-03T09:53:43.456Z,7.15
2022-10-03T09:57:02.344Z,7.22
2022-10-03T10:00:25.681Z,5.70
2022-10-03T10:03:45.946Z,7.75
2022-10-03T10:07:17.944Z,6.97
2022-10-03T10:10:48.957Z,6.28
2022-10-03T10:14:29.761Z,6.05
2022-10-03T10:18:11.456Z,5.55
2022-10-03T10:21:34.146Z,4.97
2022-10-03T10:25:07.068Z,5.85
2022-10-03T10:28:48.592Z,5.65
2022-10-03T10:32:30.220Z,5.43
2022-10-03T10:35:56.125Z,5.72
2022-10-03T10:39:37.814Z,6.93
2022-10-03T10:43:15.715Z,6.88
2022-10-03T10:46:57.738Z,8.00
2022-10-03T10:50:31.088Z,7.22
2022-10-03T10:54:12.644Z,6.68
2022-10-03T10:57:54.386Z,7.50
2022-10-03T11:01:35.970Z,7.32
2022-10-03T11:05:17.482Z,7.82
2022-10-03T11:08:59.908Z,6.13
2022-10-03T11:12:38.118Z,5.82
2022-10-03T11:16:21.206Z,6.80
2022-10-03T11:20:02.781Z,6.13
2022-10-03T11:23:44.303Z,5.80
2022-10-03T11:27:25.827Z,6.72
2022-10-03T11:31:07.638Z,6.78
2022-10-03T11:34:49.395Z,6.20
2022-10-03T11:38:30.037Z,6.35
2022-10-03T11:41:44.648Z,5.43
2022-10-03T11:44:58.110Z,5.70
2022-10-03T11:48:39.676Z,5.88
2022-10-03T11:51:53.987Z,5.75
2022-10-03T11:55:25.809Z,4.72
2022-10-03T11:59:07.538Z,5.60
2022-10-03T12:02:13.101Z,4.72
2022-10-03T12:05:44.716Z,4.53
2022-10-03T12:09:08.261Z,5.03
2022-10-03T12:12:47.751Z,5.57
2022-10-03T12:15:54.227Z,5.05
2022-10-03T12:19:25.030Z,4.47
2022-10-03T12:22:46.262Z,4.18
2022-10-03T12:25:50.163Z,3.85
2022-10-03T12:28:56.057Z,3.33
2022-10-03T12:32:25.030Z,3.28
2022-10-03T12:35:55.045Z,3.55
2022-10-03T12:39:10.822Z,3.83
2022-10-03T12:42:28.529Z,2.80
2022-10-03T12:45:40.922Z,3.63
2022-10-03T12:49:05.079Z,3.47
2022-10-03T12:52:20.861Z,4.07
2022-10-03T12:55:30.510Z,3.50
2022-10-03T12:58:52.336Z,3.33
2022-10-03T13:02:13.339Z,4.10
2022-10-03T13:05:39.246Z,4.05
2022-10-03T13:12:16.646Z,3.70
2022-10-03T13:15:44.275Z,3.15
2022-10-03T13:18:53.683Z,3.03
2022-10-03T13:22:18.124Z,3.33
2022-10-03T13:25:35.730Z,3.83
2022-10-03T13:29:11.632Z,3.08
2022-10-03T13:32:34.938Z,3.13
2022-10-03T13:36:02.720Z,3.15
2022-10-03T13:39:14.725Z,2.65
2022-10-03T13:42:39.073Z,3.63
2022-10-03T13:45:44.395Z,2.65
2022-10-03T13:49:01.029Z,2.67
2022-10-03T13:52:18.663Z,3.28
2022-10-03T13:55:36.882Z,3.10
2022-10-03T13:59:14.240Z,2.83
2022-10-03T14:02:41.987Z,2.83
2022-10-03T14:05:58.509Z,3.30
2022-10-03T14:09:20.194Z,3.10
2022-10-03T14:12:54.208Z,3.38
2022-10-03T14:16:22.326Z,2.95
2022-10-03T14:20:04.381Z,3.22
2022-10-03T14:23:30.433Z,3.30
2022-10-03T14:26:47.788Z,3.10
2022-10-03T14:30:03.886Z,3.80
2022-10-03T14:33:26.603Z,3.40
2022-10-03T14:36:52.012Z,2.63
2022-10-03T14:40:08.603Z,3.30
2022-10-03T14:43:43.030Z,3.40
2022-10-03T14:47:08.263Z,3.13
2022-10-03T14:50:22.697Z,3.50
2022-10-03T14:53:29.762Z,3.83
2022-10-03T14:56:34.877Z,2.85
2022-10-03T14:59:36.653Z,3.83
2022-10-03T15:02:45.866Z,3.70
2022-10-03T15:06:01.752Z,3.05
2022-10-03T15:09:11.078Z,3.63
2022-10-03T15:12:22.441Z,3.13
2022-10-03T15:15:29.199Z,3.20
2022-10-03T15:18:31.818Z,3.78
2022-10-03T15:21:34.123Z,2.67
2022-10-03T15:24:36.168Z,2.95
2022-10-03T15:27:42.392Z,3.33
2022-10-03T15:30:46.161Z,3.55
2022-10-03T15:33:52.566Z,3.28
2022-10-03T15:37:04.224Z,2.97
2022-10-03T15:40:33.479Z,3.53
2022-10-03T15:43:38.211Z,3.10
2022-10-03T15:47:04.993Z,3.05
2022-10-03T15:50:23.924Z,3.20
2022-10-03T15:53:36.432Z,3.13
2022-10-03T15:56:42.641Z,3.55
2022-10-03T15:59:47.023Z,3.42
